Time;durP1;ratioP1;P1;durP2;ratioP2;P2;SDS_P1;SDS_P2;PMS_P1;PMS_P2;Temp;Humidity;BMP_temperature;BMP_pressure;BME280_temperature;BME280_humidity;BME280_pressure;Samples;Min_cycle;Max_cycle;Signal;HPM_P1;HPM_P2
2022/12/17 13:08:08;;;;;;;58.72;32.22;;;;;;;3.31;57.94;102538.84;5090844;28;20060;-64
2022/12/17 13:10:35;;;;;;;;;;;;;;;3.31;57.82;102536.19;5073774;28;20565;-64
2022/12/17 13:13:16;;;;;;;55.10;30.42;;;;;;;3.31;57.81;102531.75;5073269;28;19920;-64
2022/12/17 13:16:16;;;;;;;56.97;29.45;;;;;;;3.31;57.93;102520.25;5073607;28;20051;-64
2022/12/17 13:18:42;;;;;;;53.28;29.15;;;;;;;3.37;57.95;102517.50;5073182;28;20043;-64
2022/12/17 13:21:15;;;;;;;57.00;30.40;;;;;;;3.41;57.91;102524.53;5091298;28;20040;-64
2022/12/17 13:23:42;;;;;;;64.50;33.50;;;;;;;3.44;58.04;102524.47;5091934;28;20428;-64
2022/12/17 13:26:19;;;;;;;56.30;31.17;;;;;;;3.44;58.08;102521.81;5093601;28;20040;-64
2022/12/17 13:29:02;;;;;;;54.15;31.10;;;;;;;3.43;57.90;102520.94;5091351;28;20044;-64
2022/12/17 13:31:50;;;;;;;62.13;32.08;;;;;;;3.40;57.79;102514.78;5093434;28;20047;-64
2022/12/17 13:34:38;;;;;;;59.17;30.80;;;;;;;3.35;57.75;102520.19;5092454;28;20498;-65
2022/12/17 13:37:16;;;;;;;58.08;31.42;;;;;;;3.32;57.87;102516.69;5091588;28;20405;-64
2022/12/17 13:39:56;;;;;;;62.67;32.55;;;;;;;3.31;57.73;102520.25;5092760;28;20051;-69
2022/12/17 13:42:31;;;;;;;59.55;32.22;;;;;;;3.31;57.58;102518.47;5093139;28;20048;-69
2022/12/17 13:44:58;;;;;;;62.05;32.53;;;;;;;3.33;57.92;102516.66;5093430;28;20051;-69
2022/12/17 13:47:27;;;;;;;56.00;32.47;;;;;;;3.39;57.94;102513.91;5093424;28;20039;-69
2022/12/17 13:49:56;;;;;;;57.58;33.72;;;;;;;3.46;57.62;102514.72;5091226;28;20509;-69
2022/12/17 13:52:42;;;;;;;58.10;32.85;;;;;;;3.49;57.87;102518.19;5090988;28;20513;-69
2022/12/17 13:55:18;;;;;;;57.42;32.85;;;;;;;3.53;57.56;102524.34;5091286;28;20040;-69
2022/12/17 13:57:45;;;;;;;58.55;31.80;;;;;;;3.54;57.92;102523.44;5092556;28;20047;-69
2022/12/17 14:00:30;;;;;;;60.67;32.72;;;;;;;3.54;57.99;102531.41;5095237;28;20044;-70
2022/12/17 14:02:56;;;;;;;59.00;31.85;;;;;;;3.59;57.84;102526.03;5095482;28;20060;-69
2022/12/17 14:05:36;;;;;;;54.95;32.95;;;;;;;3.57;57.82;102530.47;5095940;28;20032;-69
2022/12/17 14:08:04;;;;;;;60.83;33.58;;;;;;;3.60;57.86;102525.13;5095950;28;20090;-69
2022/12/17 14:10:31;;;;;;;58.65;34.88;;;;;;;3.63;57.86;102530.38;5097005;28;20398;-69
2022/12/17 14:13:06;;;;;;;61.30;33.88;;;;;;;3.62;57.68;102526.84;5095787;28;20047;-69
2022/12/17 14:15:33;;;;;;;54.85;34.10;;;;;;;3.59;57.66;102532.22;5096190;28;20474;-69
2022/12/17 14:18:01;;;;;;;61.78;34.90;;;;;;;3.58;57.70;102535.78;5097144;28;20047;-69
2022/12/17 14:20:34;;;;;;;62.03;35.25;;;;;;;3.54;57.71;102534.06;5096766;28;20439;-69
2022/12/17 14:23:09;;;;;;;63.75;35.17;;;;;;;3.57;57.70;102528.69;5097355;28;20042;-69
2022/12/17 14:25:38;;;;;;;61.95;35.22;;;;;;;3.55;57.65;102530.50;5095919;28;20040;-70
2022/12/17 14:28:28;;;;;;;68.85;36.42;;;;;;;3.55;57.73;102541.13;5097015;28;20398;-69
2022/12/17 14:31:07;;;;;;;59.47;33.72;;;;;;;3.55;57.71;102541.13;5095566;28;20109;-69
2022/12/17 14:34:10;;;;;;;57.90;33.50;;;;;;;3.56;57.72;102545.53;5096654;28;20044;-69
2022/12/17 14:36:40;;;;;;;60.55;33.33;;;;;;;3.55;57.61;102543.78;5096692;28;20044;-69
2022/12/17 14:39:27;;;;;;;58.70;34.28;;;;;;;3.48;57.50;102544.78;5096620;28;20152;-69
2022/12/17 14:42:24;;;;;;;58.70;32.67;;;;;;;3.44;57.37;102551.91;5096666;28;20131;-69
2022/12/17 14:45:19;;;;;;;59.25;33.38;;;;;;;3.39;57.53;102552.88;5096564;28;20051;-74
2022/12/17 14:48:00;;;;;;;60.92;33.05;;;;;;;3.35;57.53;102549.38;5090769;28;20048;-72
2022/12/17 14:50:33;;;;;;;61.65;35.83;;;;;;;3.37;57.60;102549.38;5080282;28;20036;-73
2022/12/17 14:53:21;;;;;;;57.67;33.13;;;;;;;3.38;57.48;102556.44;5075723;28;20051;-72
2022/12/17 14:55:56;;;;;;;63.45;34.50;;;;;;;3.37;57.62;102567.97;5076136;28;20111;-73
2022/12/17 14:58:24;;;;;;;61.37;34.97;;;;;;;3.35;57.53;102567.09;5087088;28;20040;-74
2022/12/17 15:01:07;;;;;;;61.15;34.78;;;;;;;3.32;57.55;102559.19;5075906;28;20849;-73
2022/12/17 15:03:42;;;;;;;65.07;34.30;;;;;;;3.25;57.53;102557.50;5096020;28;20044;-73
2022/12/17 15:06:14;;;;;;;66.75;33.88;;;;;;;3.19;57.57;102569.09;5096266;28;20097;-73
2022/12/17 15:08:46;;;;;;;60.33;34.22;;;;;;;3.16;57.51;102577.97;5095124;28;20048;-73
2022/12/17 15:11:16;;;;;;;61.28;33.42;;;;;;;3.12;57.67;102570.94;5096222;28;20046;-74
2022/12/17 15:13:43;;;;;;;62.45;35.08;;;;;;;3.07;57.39;102566.59;5097845;28;20036;-73
2022/12/17 15:16:12;;;;;;;61.00;35.15;;;;;;;3.04;57.55;102571.94;5102246;28;20055;-73
2022/12/17 15:18:39;;;;;;;62.42;34.08;;;;;;;3.02;57.75;102569.28;5095360;28;20043;-74
2022/12/17 15:21:08;;;;;;;62.38;32.88;;;;;;;3.04;57.81;102582.56;5096166;28;20060;-73
2022/12/17 15:23:39;;;;;;;61.00;34.13;;;;;;;3.04;57.74;102585.19;5096021;28;20032;-73
2022/12/17 15:26:08;;;;;;;62.83;33.10;;;;;;;3.00;57.75;102581.72;5096109;28;20036;-73
2022/12/17 15:28:35;;;;;;;64.53;32.55;;;;;;;2.98;57.69;102593.25;5094012;28;20036;-74
2022/12/17 15:31:02;;;;;;;59.47;31.77;;;;;;;2.93;57.68;102593.25;5095760;28;20153;-73
2022/12/17 15:33:29;;;;;;;62.03;34.72;;;;;;;2.87;57.65;102588.03;5095384;28;20040;-74
2022/12/17 15:35:57;;;;;;;65.68;34.63;;;;;;;2.83;57.62;102594.25;5095586;28;20097;-74
2022/12/17 15:38:23;;;;;;;58.20;32.70;;;;;;;2.78;57.65;102601.41;5077714;28;20050;-74
2022/12/17 15:40:50;;;;;;;54.53;31.52;;;;;;;2.74;57.60;102605.84;5074236;28;20036;-74
2022/12/17 15:43:17;;;;;;;59.35;31.17;;;;;;;2.71;57.75;102597.03;5075252;28;20050;-73
2022/12/17 15:45:48;;;;;;;60.08;32.45;;;;;;;2.72;57.81;102599.69;5075201;28;20056;-73
2022/12/17 15:48:18;;;;;;;58.35;31.77;;;;;;;2.73;57.80;102606.75;5090901;28;20043;-73
2022/12/17 15:50:45;;;;;;;60.92;32.85;;;;;;;2.73;57.90;102605.88;5095535;28;20066;-73
2022/12/17 15:53:13;;;;;;;63.60;32.10;;;;;;;2.69;57.70;102610.31;5095120;28;20379;-73
2022/12/17 15:55:40;;;;;;;61.40;32.67;;;;;;;2.68;57.78;102620.94;5091586;28;20402;-74
2022/12/17 15:58:09;;;;;;;64.50;33.60;;;;;;;2.64;57.69;102621.88;5075182;28;20430;-73
2022/12/17 16:00:36;;;;;;;60.38;32.35;;;;;;;2.58;57.59;102616.63;5074524;28;20048;-74
2022/12/17 16:03:03;;;;;;;62.60;32.05;;;;;;;2.50;57.65;102608.75;5073625;28;20135;-73
2022/12/17 16:05:29;;;;;;;62.47;33.78;;;;;;;2.44;57.80;102616.78;5087270;28;20032;-74
2022/12/17 16:08:00;;;;;;;59.80;32.70;;;;;;;2.40;57.59;102618.56;5095249;28;20401;-73
2022/12/17 16:10:27;;;;;;;70.13;34.45;;;;;;;2.37;57.89;102621.25;5094734;28;20052;-75
2022/12/17 16:12:54;;;;;;;71.28;35.67;;;;;;;2.35;57.90;102628.34;5094618;28;20547;-74
2022/12/17 16:15:20;;;;;;;65.45;33.83;;;;;;;2.34;57.94;102633.66;5089732;28;20451;-75
2022/12/17 16:17:47;;;;;;;71.45;35.60;;;;;;;2.34;58.04;102633.66;5086554;28;20385;-74
2022/12/17 16:20:13;;;;;;;74.78;35.75;;;;;;;2.35;58.02;102631.00;5093644;28;20044;-75
2022/12/17 16:22:40;;;;;;;74.55;35.42;;;;;;;2.33;57.88;102629.25;5094378;28;20058;-74
2022/12/17 16:25:07;;;;;;;65.03;35.00;;;;;;;2.27;57.95;102627.53;5093793;28;20448;-74
2022/12/17 16:27:34;;;;;;;72.55;36.88;;;;;;;2.23;57.96;102626.66;5094635;28;20033;-74
2022/12/17 16:30:02;;;;;;;81.13;37.65;;;;;;;2.20;58.08;102625.78;5094432;28;20040;-74
2022/12/17 16:32:28;;;;;;;74.25;37.13;;;;;;;2.18;58.11;102633.75;5094211;28;20051;-74
2022/12/17 16:35:03;;;;;;;75.35;36.50;;;;;;;2.18;58.02;102630.22;5093900;28;20064;-74
2022/12/17 16:37:30;;;;;;;79.35;38.50;;;;;;;2.18;58.15;102639.03;5094606;28;20047;-75
2022/12/17 16:39:56;;;;;;;77.95;37.58;;;;;;;2.17;58.01;102633.75;5093263;28;20048;-73
2022/12/17 16:42:26;;;;;;;79.45;38.47;;;;;;;2.15;58.00;102640.84;5093822;28;20478;-73
2022/12/17 16:44:52;;;;;;;78.28;37.22;;;;;;;2.14;58.07;102647.03;5089463;28;20041;-74
2022/12/17 16:47:19;;;;;;;78.20;37.30;;;;;;;2.12;58.20;102643.50;5074061;28;20051;-74
2022/12/17 16:49:49;;;;;;;68.82;34.90;;;;;;;2.08;58.24;102634.69;5073756;28;20402;-74
2022/12/17 16:52:15;;;;;;;74.53;36.33;;;;;;;2.04;58.21;102630.31;5073804;28;20041;-74
2022/12/17 16:54:42;;;;;;;77.15;38.22;;;;;;;1.99;58.28;102623.28;5078227;28;20040;-74
2022/12/17 16:57:08;;;;;;;76.95;37.25;;;;;;;1.95;58.22;102627.75;5091539;28;20036;-75
2022/12/17 16:59:35;;;;;;;76.55;38.38;;;;;;;1.93;58.20;102629.50;5094037;28;20044;-74
2022/12/17 17:02:01;;;;;;;81.47;38.25;;;;;;;1.92;58.30;102631.28;5092400;28;20040;-75
2022/12/17 17:04:28;;;;;;;87.15;37.92;;;;;;;1.91;58.36;102632.19;5093310;28;20127;-74
2022/12/17 17:06:56;;;;;;;83.88;38.92;;;;;;;1.89;58.26;102631.31;5072448;28;20044;-74
2022/12/17 17:09:24;;;;;;;76.75;37.40;;;;;;;1.83;58.34;102628.69;5073498;28;20067;-73
2022/12/17 17:11:55;;;;;;;81.63;39.35;;;;;;;1.82;58.24;102634.88;5073215;28;20044;-74
2022/12/17 17:14:22;;;;;;;87.55;40.53;;;;;;;1.84;58.23;102638.41;5088789;28;20161;-74
2022/12/17 17:16:49;;;;;;;82.63;39.35;;;;;;;1.83;58.24;102644.59;5093758;28;20047;-74
2022/12/17 17:19:17;;;;;;;81.05;39.28;;;;;;;1.80;58.21;102636.66;5093521;28;20050;-75
2022/12/17 17:21:50;;;;;;;80.32;37.53;;;;;;;1.79;58.34;102636.69;5093190;28;20046;-74
2022/12/17 17:24:19;;;;;;;79.22;35.70;;;;;;;1.80;58.45;102646.38;5092784;28;20052;-73
2022/12/17 17:26:49;;;;;;;82.70;37.63;;;;;;;1.76;58.27;102655.25;5093874;28;20048;-74
2022/12/17 17:29:16;;;;;;;83.95;37.15;;;;;;;1.67;58.30;102644.69;5093484;28;20505;-75
2022/12/17 17:31:42;;;;;;;69.05;35.42;;;;;;;1.61;58.32;102647.38;5093221;28;20101;-74
2022/12/17 17:34:29;;;;;;;78.05;36.08;;;;;;;1.56;58.19;102642.09;5092320;28;20579;-74
2022/12/17 17:36:55;;;;;;;72.72;33.38;;;;;;;1.51;58.29;102646.53;5093484;28;20040;-74
2022/12/17 17:39:22;;;;;;;64.53;31.77;;;;;;;1.45;58.40;102654.47;5093423;28;20551;-74
2022/12/17 17:41:48;;;;;;;65.82;32.67;;;;;;;1.43;58.29;102646.56;5092623;28;20039;-75
2022/12/17 17:44:15;;;;;;;66.82;33.58;;;;;;;1.44;58.35;102650.06;5093532;28;20032;-75
2022/12/17 17:46:42;;;;;;;73.38;32.40;;;;;;;1.45;58.38;102652.72;5093174;28;20097;-75
2022/12/17 17:49:09;;;;;;;88.40;33.60;;;;;;;1.46;58.32;102658.88;5093035;28;20097;-74
2022/12/17 17:51:40;;;;;;;75.22;32.75;;;;;;;1.43;58.49;102657.13;5092270;28;20039;-74
2022/12/17 17:54:27;;;;;;;71.15;32.38;;;;;;;1.35;58.39;102653.66;5073516;28;20558;-74
2022/12/17 17:56:54;;;;;;;70.13;31.38;;;;;;;1.30;58.36;102655.44;5073244;28;20066;-75
2022/12/17 17:59:21;;;;;;;93.07;34.92;;;;;;;1.30;58.48;102665.13;5072971;28;20086;-75
2022/12/17 18:01:58;;;;;;;68.68;32.72;;;;;;;1.27;58.40;102664.25;5086841;28;20485;-75
2022/12/17 18:04:25;;;;;;;71.22;33.53;;;;;;;1.30;58.48;102673.97;5077389;28;20055;-75
2022/12/17 18:06:52;;;;;;;80.38;33.47;;;;;;;1.33;58.57;102670.41;5093244;28;20139;-75
2022/12/17 18:09:38;;;;;;;63.60;33.78;;;;;;;1.31;58.37;102673.06;5092839;28;20070;-75
2022/12/17 18:14:51;;;;;;;61.60;30.80;;;;;;;1.31;58.38;102674.84;5092842;28;20044;-75
2022/12/17 18:17:38;;;;;;;75.32;32.38;;;;;;;1.34;58.52;102678.34;5093058;28;20566;-75
2022/12/17 18:20:05;;;;;;;73.53;32.40;;;;;;;1.37;58.52;102696.88;5091735;28;20032;-75
2022/12/17 18:22:31;;;;;;;74.28;34.17;;;;;;;1.36;58.52;102681.00;5093149;28;20048;-74
2022/12/17 18:24:58;;;;;;;63.95;31.88;;;;;;;1.32;58.44;102685.41;5092229;28;20036;-75
2022/12/17 18:27:24;;;;;;;83.40;32.25;;;;;;;1.31;58.45;102682.78;5093212;28;20040;-74
2022/12/17 18:29:51;;;;;;;86.18;34.40;;;;;;;1.29;58.42;102685.44;5092951;28;20040;-74
2022/12/17 18:32:18;;;;;;;87.13;36.15;;;;;;;1.30;58.40;102678.38;5091438;28;20122;-74
2022/12/17 18:34:44;;;;;;;74.45;34.17;;;;;;;1.27;58.55;102682.78;5092870;28;20432;-75
2022/12/17 18:37:11;;;;;;;79.47;35.05;;;;;;;1.30;58.70;102679.25;5092414;28;20032;-75
2022/12/17 18:39:37;;;;;;;79.15;36.45;;;;;;;1.31;58.67;102677.47;5092634;28;20048;-77
2022/12/17 18:44:49;;;;;;;72.97;34.15;;;;;;;1.36;58.82;102687.16;5095882;28;20044;-74
2022/12/17 18:47:17;;;;;;;69.32;33.83;;;;;;;1.39;58.57;102679.22;5096583;28;20044;-75
2022/12/17 18:49:44;;;;;;;81.22;34.15;;;;;;;1.41;58.62;102679.22;5085741;28;20115;-75
2022/12/17 18:52:10;;;;;;;82.45;34.20;;;;;;;1.39;58.62;102676.56;5074823;28;20044;-74
2022/12/17 18:54:42;;;;;;;64.97;31.83;;;;;;;1.37;58.66;102678.34;5074968;28;20052;-75
2022/12/17 18:57:09;;;;;;;76.18;32.60;;;;;;;1.38;58.77;102677.44;5086872;28;20035;-75
2022/12/17 18:59:36;;;;;;;62.22;30.23;;;;;;;1.37;58.76;102682.75;5096383;28;20032;-74
2022/12/17 19:02:03;;;;;;;65.65;30.40;;;;;;;1.34;58.78;102673.06;5096140;28;20044;-74
2022/12/17 19:04:31;;;;;;;112.60;31.55;;;;;;;1.30;58.73;102683.66;5095025;28;20067;-74
2022/12/17 19:06:58;;;;;;;89.40;31.45;;;;;;;1.23;58.62;102681.03;5094676;28;20028;-75
2022/12/17 19:09:28;;;;;;;67.80;29.63;;;;;;;1.16;59.03;102681.06;5095851;28;20044;-76
2022/12/17 19:11:55;;;;;;;78.68;31.08;;;;;;;1.10;58.71;102684.59;5095955;28;20040;-75
2022/12/17 19:14:23;;;;;;;58.65;29.05;;;;;;;1.08;58.74;102674.91;5095740;28;20139;-75
2022/12/17 19:16:53;;;;;;;73.95;32.10;;;;;;;1.06;58.59;102680.22;5095213;28;20046;-75
2022/12/17 19:19:20;;;;;;;69.95;31.27;;;;;;;1.03;58.81;102677.56;5095989;28;20561;-75
2022/12/17 19:21:47;;;;;;;69.05;31.10;;;;;;;1.02;58.95;102683.75;5094710;28;20044;-75
2022/12/17 19:24:17;;;;;;;66.88;31.83;;;;;;;1.00;58.74;102688.16;5094533;28;20460;-75
2022/12/17 19:26:44;;;;;;;61.70;31.58;;;;;;;1.00;58.90;102695.22;5085743;28;20036;-74
2022/12/17 19:29:13;;;;;;;58.90;28.85;;;;;;;1.01;58.73;102699.63;5075665;28;20036;-75
2022/12/17 19:31:40;;;;;;;70.13;31.17;;;;;;;1.05;58.83;102702.25;5075657;28;20149;-75
2022/12/17 19:34:09;;;;;;;72.80;31.30;;;;;;;1.08;58.90;102699.59;5074106;28;20127;-76
2022/12/17 19:36:38;;;;;;;60.00;30.17;;;;;;;1.11;58.90;102701.38;5075328;28;20040;-75
2022/12/17 19:39:07;;;;;;;73.93;31.08;;;;;;;1.12;59.02;102711.94;5085989;28;20055;-75
2022/12/17 19:41:34;;;;;;;66.35;31.48;;;;;;;1.13;58.97;102707.53;5095381;28;20036;-75
2022/12/17 19:44:04;;;;;;;62.47;30.33;;;;;;;1.12;59.00;102705.78;5095547;28;20044;-75
2022/12/17 19:46:32;;;;;;;68.18;31.85;;;;;;;1.11;58.97;102710.19;5094294;28;20090;-75
2022/12/17 19:48:58;;;;;;;70.80;30.88;;;;;;;1.10;58.80;102715.47;5095525;28;20093;-75
2022/12/17 19:51:28;;;;;;;64.25;31.65;;;;;;;1.08;58.93;102704.91;5095709;28;20044;-75
2022/12/17 19:53:55;;;;;;;66.72;31.23;;;;;;;1.09;58.87;102701.38;5095130;28;20051;-74
2022/12/17 19:56:29;;;;;;;71.88;34.33;;;;;;;1.12;58.94;102693.41;5093645;28;20060;-75
2022/12/17 19:59:00;;;;;;;64.90;31.33;;;;;;;1.14;59.13;102702.22;5074960;28;20041;-75
2022/12/17 20:01:32;;;;;;;72.88;33.28;;;;;;;1.15;58.95;102701.34;5075027;28;20032;-76
2022/12/17 20:03:59;;;;;;;69.30;31.35;;;;;;;1.16;59.12;102705.75;5091464;28;20048;-75
2022/12/17 20:06:30;;;;;;;75.72;34.45;;;;;;;1.21;59.14;102711.91;5094974;28;20097;-74
2022/12/17 20:08:58;;;;;;;71.20;33.38;;;;;;;1.24;58.99;102709.25;5093115;28;20040;-74
2022/12/17 20:11:31;;;;;;;69.68;34.47;;;;;;;1.26;59.06;102707.50;5095224;28;20078;-73
2022/12/17 20:14:07;;;;;;;68.10;33.45;;;;;;;1.26;59.03;102710.13;5094753;28;20052;-74
2022/12/17 20:16:40;;;;;;;65.07;33.25;;;;;;;1.27;58.97;102714.53;5094814;28;20039;-74
2022/12/17 20:19:10;;;;;;;61.80;32.35;;;;;;;1.28;58.93;102716.31;5094912;28;20123;-74
2022/12/17 20:21:37;;;;;;;60.85;31.58;;;;;;;1.30;58.96;102726.00;5094675;28;20048;-74
2022/12/17 20:24:04;;;;;;;59.97;30.98;;;;;;;1.31;59.17;102727.78;5094756;28;20044;-66
2022/12/17 20:26:32;;;;;;;59.22;31.75;;;;;;;1.31;59.00;102726.00;5094563;28;20512;-66
2022/12/17 20:28:58;;;;;;;65.95;30.17;;;;;;;1.28;58.97;102726.91;5077028;28;20036;-66
2022/12/17 20:31:26;;;;;;;59.95;30.60;;;;;;;1.26;58.98;102725.13;5074336;28;20047;-66
2022/12/17 20:33:53;;;;;;;63.95;31.42;;;;;;;1.21;58.84;102722.50;5073971;28;20055;-65
2022/12/17 20:36:21;;;;;;;59.38;29.67;;;;;;;1.18;58.69;102729.56;5074192;28;20490;-65
2022/12/17 20:38:48;;;;;;;63.47;30.45;;;;;;;1.16;58.71;102731.34;5074296;28;20075;-66
2022/12/17 20:41:23;;;;;;;57.20;30.95;;;;;;;1.14;58.90;102738.41;5093588;28;20089;-66
2022/12/17 20:43:50;;;;;;;60.85;29.70;;;;;;;1.16;58.92;102732.22;5094129;28;20052;-65
2022/12/17 20:46:18;;;;;;;57.75;31.17;;;;;;;1.22;59.02;102731.31;5094250;28;20073;-66
2022/12/17 20:48:45;;;;;;;58.45;28.30;;;;;;;1.26;59.05;102725.13;5094219;28;20069;-66
2022/12/17 20:51:15;;;;;;;57.05;28.35;;;;;;;1.24;58.87;102727.78;5093638;28;20044;-65
2022/12/17 20:53:43;;;;;;;58.92;30.17;;;;;;;1.22;58.91;102726.91;5093128;28;20048;-66
2022/12/17 20:56:13;;;;;;;59.33;29.70;;;;;;;1.22;58.90;102715.44;5094151;28;20059;-66
2022/12/17 20:58:41;;;;;;;60.92;30.33;;;;;;;1.24;58.81;102713.69;5092891;28;20575;-69
2022/12/17 21:01:17;;;;;;;65.35;31.27;;;;;;;1.26;58.78;102719.84;5073691;28;20128;-65
2022/12/17 21:03:46;;;;;;;57.20;28.60;;;;;;;1.26;58.69;102718.09;5073659;28;20053;-65
2022/12/17 21:06:15;;;;;;;58.35;29.85;;;;;;;1.28;58.88;102705.72;5072309;28;20048;-64
2022/12/17 21:08:43;;;;;;;62.10;30.13;;;;;;;1.31;58.72;102706.59;5073391;28;20045;-65
2022/12/17 21:11:23;;;;;;;65.20;30.42;;;;;;;1.30;58.61;102711.00;5078737;28;20068;-65
2022/12/17 21:13:50;;;;;;;63.53;29.77;;;;;;;1.29;58.82;102701.31;5077060;28;20052;-66
2022/12/17 21:16:20;;;;;;;59.53;29.85;;;;;;;1.26;58.79;102707.50;5073754;28;20051;-66
2022/12/17 21:18:47;;;;;;;59.97;30.95;;;;;;;1.24;58.69;102700.44;5073466;28;20037;-66
2022/12/17 21:21:19;;;;;;;60.08;30.83;;;;;;;1.24;58.52;102706.63;5073651;28;20445;-65
2022/12/17 21:23:47;;;;;;;59.47;30.42;;;;;;;1.26;58.31;102712.78;5073263;28;20075;-65
2022/12/17 21:26:17;;;;;;;56.80;28.30;;;;;;;1.29;58.66;102711.91;5073414;28;20537;-66
2022/12/17 21:28:45;;;;;;;61.78;30.10;;;;;;;1.30;58.54;102708.38;5085877;28;20567;-66
2022/12/17 21:31:21;;;;;;;56.47;30.38;;;;;;;1.31;58.62;102710.13;5093015;28;20036;-65
2022/12/17 21:33:49;;;;;;;59.10;29.95;;;;;;;1.36;58.50;102710.13;5093194;28;20058;-65
2022/12/17 21:36:18;;;;;;;59.10;30.38;;;;;;;1.36;58.64;102723.34;5093593;28;20101;-65
2022/12/17 21:38:46;;;;;;;55.40;28.02;;;;;;;1.35;58.35;102726.88;5093449;28;20040;-65
2022/12/17 21:41:15;;;;;;;58.47;29.75;;;;;;;1.35;58.51;102737.47;5091025;28;20383;-65
2022/12/17 21:43:42;;;;;;;54.70;28.10;;;;;;;1.34;58.58;102749.81;5093137;28;20043;-66
2022/12/17 21:46:10;;;;;;;51.90;28.27;;;;;;;1.37;58.43;102746.28;5086509;28;20438;-65
2022/12/17 21:48:39;;;;;;;62.20;30.60;;;;;;;1.37;58.26;102746.28;5072740;28;20449;-66
2022/12/17 21:51:10;;;;;;;61.72;30.98;;;;;;;1.31;58.28;102741.88;5073380;28;20131;-66
2022/12/17 21:53:41;;;;;;;65.22;30.35;;;;;;;1.24;58.04;102735.72;5091987;28;20047;-65
2022/12/17 21:56:11;;;;;;;60.83;30.02;;;;;;;1.19;58.12;102744.56;5093357;28;20058;-65
2022/12/17 21:58:39;;;;;;;62.00;29.83;;;;;;;1.12;58.14;102749.00;5093194;28;20036;-66
2022/12/17 22:01:20;;;;;;;60.08;30.95;;;;;;;1.05;57.97;102749.88;5093113;28;20115;-66
2022/12/17 22:03:48;;;;;;;58.22;29.63;;;;;;;0.98;57.94;102758.72;5092465;28;20093;-66
2022/12/17 22:06:23;;;;;;;61.70;31.38;;;;;;;0.93;58.07;102765.78;5093044;28;20051;-65
2022/12/17 22:08:58;;;;;;;52.67;29.65;;;;;;;0.98;58.15;102769.28;5093489;28;20051;-65
2022/12/17 22:11:39;;;;;;;55.83;28.20;;;;;;;1.03;58.37;102772.81;5093070;28;20097;-66
2022/12/17 22:14:10;;;;;;;59.17;30.27;;;;;;;1.08;58.05;102770.16;5091842;28;20050;-66
2022/12/17 22:16:47;;;;;;;57.05;29.75;;;;;;;1.13;58.16;102768.38;5080673;28;20056;-66
2022/12/17 22:19:21;;;;;;;60.50;30.00;;;;;;;1.19;58.31;102766.63;5074618;28;20097;-66
2022/12/17 22:21:50;;;;;;;55.55;28.98;;;;;;;1.22;58.04;102763.97;5076814;28;20040;-65
2022/12/17 22:24:24;;;;;;;58.67;29.50;;;;;;;1.23;58.12;102749.84;5083159;28;20044;-65
2022/12/17 22:26:58;;;;;;;58.85;29.40;;;;;;;1.21;57.95;102753.38;5097222;28;20101;-66
2022/12/17 22:34:59;;;;;;;60.95;30.73;;;;;;;1.17;57.71;102749.88;5095927;28;20490;-64
2022/12/17 22:37:45;;;;;;;54.72;27.98;;;;;;;1.17;57.74;102752.50;5097158;28;20086;-65
2022/12/17 22:40:32;;;;;;;57.22;29.27;;;;;;;1.19;57.86;102748.09;5096943;28;20552;-67
2022/12/17 22:43:28;;;;;;;57.90;29.33;;;;;;;1.20;57.62;102744.56;5097047;28;20123;-66
2022/12/17 22:46:15;;;;;;;59.60;29.85;;;;;;;1.20;57.53;102749.84;5093809;28;20124;-64
2022/12/17 22:48:42;;;;;;;60.42;31.10;;;;;;;1.18;57.48;102750.75;5096117;28;20490;-64
2022/12/17 22:51:09;;;;;;;61.03;31.05;;;;;;;1.17;57.67;102749.88;5096789;28;20044;-65
2022/12/17 22:53:44;;;;;;;57.00;30.17;;;;;;;1.19;57.58;102748.09;5096458;28;20044;-65
2022/12/17 22:56:10;;;;;;;59.72;28.73;;;;;;;1.16;57.47;102753.38;5084665;28;20113;-64
2022/12/17 22:58:58;;;;;;;60.42;30.05;;;;;;;1.11;57.48;102760.47;5093417;28;20032;-65
2022/12/17 23:01:25;;;;;;;61.78;30.05;;;;;;;1.06;57.43;102770.16;5088786;28;20399;-65
2022/12/17 23:03:56;;;;;;;57.40;30.52;;;;;;;1.01;57.15;102758.72;5081319;28;20175;-65
2022/12/17 23:06:23;;;;;;;60.08;28.65;;;;;;;1.00;57.23;102764.88;5089752;28;20044;-65
2022/12/17 23:08:50;;;;;;;61.80;31.80;;;;;;;1.00;57.31;102751.66;5096439;28;20040;-65
2022/12/17 23:11:25;;;;;;;60.47;30.55;;;;;;;1.00;57.23;102756.06;5094711;28;20078;-65
2022/12/17 23:13:53;;;;;;;;;;;;;;;0.97;56.97;102749.00;5096365;28;20043;-65
2022/12/17 23:16:20;;;;;;;60.63;28.05;;;;;;;0.99;57.06;102752.53;5096030;28;19919;-65
2022/12/17 23:18:48;;;;;;;65.18;30.38;;;;;;;0.98;57.00;102747.25;5096527;28;20117;-64
2022/12/17 23:21:18;;;;;;;57.88;29.35;;;;;;;0.95;56.85;102742.84;5096317;28;20165;-65
2022/12/17 23:23:44;;;;;;;56.20;30.38;;;;;;;0.93;56.93;102744.59;5094651;28;20040;-65
2022/12/17 23:26:17;;;;;;;65.63;31.65;;;;;;;0.91;56.86;102735.78;5096052;28;20041;-64
2022/12/17 23:28:45;;;;;;;58.28;30.95;;;;;;;0.86;56.82;102727.84;5094745;28;20449;-64
2022/12/17 23:31:16;;;;;;;57.80;30.63;;;;;;;0.82;56.56;102723.47;5095905;28;20039;-64
2022/12/17 23:33:43;;;;;;;66.57;30.42;;;;;;;0.79;56.78;102715.53;5095668;28;20052;-65
2022/12/17 23:36:13;;;;;;;56.90;30.13;;;;;;;0.76;56.64;102725.22;5096061;28;20048;-65
2022/12/17 23:38:40;;;;;;;57.70;30.95;;;;;;;0.73;56.64;102738.41;5096169;28;20048;-65
2022/12/17 23:41:09;;;;;;;62.90;31.50;;;;;;;0.69;56.64;102742.81;5095897;28;20044;-65
2022/12/17 23:43:37;;;;;;;62.08;29.45;;;;;;;0.65;56.58;102743.69;5090145;28;20079;-64
2022/12/17 23:46:05;;;;;;;58.00;29.85;;;;;;;0.62;56.39;102743.69;5079046;28;20085;-65
2022/12/17 23:48:36;;;;;;;64.28;30.55;;;;;;;0.60;56.65;102738.41;5079361;28;20044;-65
2022/12/17 23:51:12;;;;;;;55.13;29.27;;;;;;;0.61;56.43;102726.06;5094178;28;20049;-65
2022/12/17 23:53:40;;;;;;;53.65;29.38;;;;;;;0.57;56.34;102730.47;5088978;28;20052;-65
2022/12/17 23:56:18;;;;;;;51.38;27.90;;;;;;;0.52;56.30;102736.66;5074681;28;20082;-65
2022/12/17 23:58:46;;;;;;;57.85;29.35;;;;;;;0.47;56.29;102755.16;5075407;28;20135;-65
